createdAt,value
2023-02-22T00:00:59.840Z,12.00
2023-02-22T00:03:32.408Z,12.00
2023-02-22T00:06:05.211Z,12.04
2023-02-22T00:08:36.836Z,12.00
2023-02-22T00:11:10.141Z,11.93
2023-02-22T00:13:38.548Z,11.89
2023-02-22T00:16:06.573Z,11.90
2023-02-22T00:18:34.033Z,11.56
2023-02-22T00:21:01.739Z,11.44
2023-02-22T00:23:31.744Z,11.71
2023-02-22T00:26:00.421Z,11.55
2023-02-22T00:28:28.141Z,11.30
2023-02-22T00:30:55.892Z,11.36
2023-02-22T00:33:23.618Z,11.36
2023-02-22T00:35:51.405Z,11.26
2023-02-22T00:38:19.351Z,11.32
2023-02-22T00:40:46.860Z,11.35
2023-02-22T00:43:14.946Z,11.36
2023-02-22T00:45:42.624Z,11.31
2023-02-22T00:48:10.782Z,11.26
2023-02-22T00:50:38.529Z,11.19
2023-02-22T00:53:07.438Z,11.28
2023-02-22T00:55:36.388Z,11.23
2023-02-22T00:58:05.203Z,11.32
2023-02-22T01:00:38.642Z,11.11
2023-02-22T01:03:10.677Z,11.23
2023-02-22T01:05:38.411Z,11.33
2023-02-22T01:08:08.264Z,11.38
2023-02-22T01:10:36.575Z,11.47
2023-02-22T01:13:09.175Z,11.52
2023-02-22T01:15:38.723Z,11.51
2023-02-22T01:18:06.686Z,11.49
2023-02-22T01:20:34.612Z,11.41
2023-02-22T01:23:06.383Z,11.38
2023-02-22T01:25:34.784Z,11.34
2023-02-22T01:28:03.645Z,11.32
2023-02-22T01:30:34.559Z,11.37
2023-02-22T01:33:03.990Z,11.52
2023-02-22T01:35:35.920Z,11.53
2023-02-22T01:38:03.439Z,11.34
2023-02-22T01:40:34.461Z,11.17
2023-02-22T01:43:10.952Z,11.12
2023-02-22T01:45:44.654Z,11.11
2023-02-22T01:48:17.447Z,11.21
2023-02-22T01:50:55.243Z,11.08
2023-02-22T01:53:27.157Z,11.09
2023-02-22T01:55:55.074Z,11.13
2023-02-22T01:58:24.841Z,10.90
2023-02-22T02:00:52.287Z,10.84
2023-02-22T02:03:27.684Z,10.71
2023-02-22T02:05:59.098Z,10.78
2023-02-22T02:08:49.884Z,10.72
2023-02-22T02:11:24.665Z,10.56
2023-02-22T02:13:57.431Z,10.55
2023-02-22T02:16:31.206Z,10.58
2023-02-22T02:18:58.599Z,10.48
2023-02-22T02:21:38.606Z,10.36
2023-02-22T02:24:30.178Z,10.50
2023-02-22T02:27:18.962Z,10.28
2023-02-22T02:29:52.567Z,10.31
2023-02-22T02:32:28.035Z,10.34
2023-02-22T02:35:21.567Z,10.25
2023-02-22T02:38:10.894Z,10.12
2023-02-22T02:41:04.211Z,10.07
2023-02-22T02:43:52.004Z,10.10
2023-02-22T02:46:32.094Z,10.24
2023-02-22T02:49:04.781Z,10.16
2023-02-22T02:51:39.028Z,10.32
2023-02-22T02:54:07.788Z,10.36
2023-02-22T02:56:35.631Z,10.08
2023-02-22T02:59:03.025Z,10.26
2023-02-22T03:01:36.180Z,10.19
2023-02-22T03:04:43.416Z,10.36
2023-02-22T03:07:11.103Z,10.33
2023-02-22T03:10:13.182Z,10.23
2023-02-22T03:13:15.174Z,10.35
2023-02-22T03:15:58.116Z,10.43
2023-02-22T03:18:37.003Z,10.26
2023-02-22T03:21:21.180Z,10.36
2023-02-22T03:24:01.423Z,10.47
2023-02-22T03:26:38.130Z,10.44
2023-02-22T03:29:06.944Z,10.32
2023-02-22T03:31:39.559Z,10.38
2023-02-22T03:34:12.010Z,10.49
2023-02-22T03:36:55.962Z,10.61
2023-02-22T03:39:30.879Z,10.53
2023-02-22T03:42:14.193Z,10.44
2023-02-22T03:44:43.593Z,10.40
2023-02-22T03:47:22.666Z,10.48
2023-02-22T03:50:06.934Z,10.43
2023-02-22T03:52:37.846Z,10.55
2023-02-22T03:55:11.130Z,10.51
2023-02-22T03:57:41.767Z,10.56
2023-02-22T04:00:14.492Z,10.55
2023-02-22T04:02:41.970Z,10.48
2023-02-22T04:05:11.807Z,10.57
2023-02-22T04:07:39.766Z,10.68
2023-02-22T04:10:08.667Z,10.49
2023-02-22T04:12:37.947Z,10.45
2023-02-22T04:15:07.045Z,10.60
2023-02-22T04:17:34.947Z,10.67
2023-02-22T04:20:03.928Z,10.62
2023-02-22T04:22:34.326Z,10.65
2023-02-22T04:25:01.873Z,10.60
2023-02-22T04:27:29.565Z,10.60
2023-02-22T04:29:57.252Z,10.60
2023-02-22T04:32:24.849Z,10.58
2023-02-22T04:34:53.135Z,10.52
2023-02-22T04:37:20.540Z,10.59
2023-02-22T04:39:48.004Z,10.63
2023-02-22T04:42:15.836Z,10.66
2023-02-22T04:44:43.265Z,10.63
2023-02-22T04:47:10.723Z,10.58
2023-02-22T04:49:39.155Z,10.58
2023-02-22T04:52:07.110Z,10.59
2023-02-22T04:54:34.592Z,10.56
2023-02-22T04:57:02.733Z,10.66
2023-02-22T04:59:30.189Z,10.64
2023-02-22T05:02:00.727Z,10.77
2023-02-22T05:04:28.398Z,10.78
2023-02-22T05:06:55.852Z,10.79
2023-02-22T05:09:23.403Z,10.84
2023-02-22T05:11:51.117Z,10.83
2023-02-22T05:14:18.510Z,10.81
2023-02-22T05:16:45.955Z,10.85
2023-02-22T05:19:13.830Z,10.78
2023-02-22T05:21:41.363Z,10.83
2023-02-22T05:24:08.750Z,10.79
2023-02-22T05:26:36.382Z,10.77
2023-02-22T05:29:03.736Z,10.81
2023-02-22T05:31:31.161Z,10.87
2023-02-22T05:33:58.852Z,10.95
2023-02-22T05:36:28.038Z,10.91
2023-02-22T05:38:56.273Z,10.95
2023-02-22T05:41:23.982Z,10.93
2023-02-22T05:43:51.590Z,10.66
2023-02-22T05:46:19.058Z,10.80
2023-02-22T05:48:46.772Z,10.78
2023-02-22T05:51:14.345Z,10.72
2023-02-22T05:53:42.562Z,10.87
2023-02-22T05:56:10.328Z,11.02
2023-02-22T05:58:37.735Z,11.05
2023-02-22T06:01:05.345Z,11.06
2023-02-22T06:03:32.974Z,11.10
2023-02-22T06:06:00.322Z,11.07
2023-02-22T06:08:27.720Z,11.00
2023-02-22T06:10:55.356Z,11.06
2023-02-22T06:13:22.787Z,11.02
2023-02-22T06:15:50.285Z,11.08
2023-02-22T06:18:18.144Z,11.14
2023-02-22T06:20:45.488Z,11.18
2023-02-22T06:23:12.866Z,11.02
2023-02-22T06:25:40.574Z,11.27
2023-02-22T06:28:07.958Z,11.55
2023-02-22T06:30:35.512Z,11.64
2023-02-22T06:33:03.308Z,11.69
2023-02-22T06:35:30.712Z,11.68
2023-02-22T06:37:58.081Z,11.81
2023-02-22T06:40:29.492Z,11.85
2023-02-22T06:42:58.410Z,11.72
2023-02-22T06:45:26.460Z,11.83
2023-02-22T06:47:53.998Z,11.86
2023-02-22T06:50:31.491Z,11.91
2023-02-22T06:52:59.197Z,11.69
2023-02-22T06:55:28.628Z,11.73
2023-02-22T06:57:56.079Z,11.81
2023-02-22T07:00:25.923Z,11.90
2023-02-22T07:02:54.209Z,11.73
2023-02-22T07:05:22.863Z,11.90
2023-02-22T07:07:52.687Z,11.99
2023-02-22T07:10:29.695Z,11.97
2023-02-22T07:12:57.512Z,12.15
2023-02-22T07:15:26.455Z,12.10
2023-02-22T07:17:53.960Z,12.17
2023-02-22T07:20:22.621Z,12.15
2023-02-22T07:22:50.644Z,12.27
2023-02-22T07:25:19.326Z,12.30
2023-02-22T07:27:47.361Z,12.56
2023-02-22T07:30:19.661Z,12.42
2023-02-22T07:32:47.501Z,12.38
2023-02-22T07:35:20.609Z,12.36
2023-02-22T07:37:48.342Z,12.39
2023-02-22T07:40:16.818Z,12.22
2023-02-22T07:43:07.057Z,12.45
2023-02-22T07:45:35.643Z,12.30
2023-02-22T07:48:04.819Z,12.38
2023-02-22T07:50:33.462Z,12.42
2023-02-22T07:53:03.290Z,12.51
2023-02-22T07:55:32.397Z,12.70
2023-02-22T07:58:01.970Z,12.96
2023-02-22T08:00:35.119Z,13.12
2023-02-22T08:03:05.222Z,13.24
2023-02-22T08:05:33.483Z,13.51
2023-02-22T08:08:01.682Z,13.69
2023-02-22T08:10:29.469Z,13.46
2023-02-22T08:12:57.057Z,13.64
2023-02-22T08:15:25.492Z,13.62
2023-02-22T08:17:53.651Z,13.57
2023-02-22T08:20:22.097Z,13.68
2023-02-22T08:22:50.088Z,13.95
2023-02-22T08:25:20.301Z,13.92
2023-02-22T08:27:47.984Z,14.31
2023-02-22T08:30:18.490Z,14.04
2023-02-22T08:32:47.562Z,14.30
2023-02-22T08:35:16.780Z,14.44
2023-02-22T08:37:56.265Z,14.36
2023-02-22T08:40:25.810Z,14.31
2023-02-22T08:42:53.764Z,14.42
2023-02-22T08:45:21.146Z,14.37
2023-02-22T08:47:49.016Z,14.66
2023-02-22T08:50:22.703Z,14.49
2023-02-22T08:52:52.214Z,14.48
2023-02-22T08:55:23.958Z,14.38
2023-02-22T08:57:51.729Z,14.58
2023-02-22T09:00:20.714Z,14.56
2023-02-22T09:02:48.229Z,14.41
2023-02-22T09:05:17.048Z,14.52
2023-02-22T09:07:45.122Z,14.46
2023-02-22T09:10:18.449Z,14.80
2023-02-22T09:12:46.296Z,14.88
2023-02-22T09:15:14.884Z,15.14
2023-02-22T09:17:42.292Z,15.08
2023-02-22T09:20:12.294Z,15.05
2023-02-22T09:22:40.226Z,15.07
2023-02-22T09:25:16.178Z,15.26
2023-02-22T09:27:47.900Z,15.08
2023-02-22T09:30:23.753Z,14.97
2023-02-22T09:32:54.846Z,15.28
2023-02-22T09:35:27.420Z,15.07
2023-02-22T09:37:57.435Z,15.29
2023-02-22T09:40:30.457Z,15.52
2023-02-22T09:43:04.408Z,15.48
2023-02-22T09:45:36.928Z,15.59
2023-02-22T09:48:21.179Z,15.77
2023-02-22T09:50:51.494Z,15.79
2023-02-22T09:53:31.789Z,15.71
2023-02-22T09:56:07.208Z,15.33
2023-02-22T09:58:41.833Z,15.59
2023-02-22T10:01:26.909Z,15.59
2023-02-22T10:04:05.966Z,15.21
2023-02-22T10:06:34.822Z,15.42
2023-02-22T10:09:08.014Z,15.21
2023-02-22T10:11:57.637Z,15.43
2023-02-22T10:14:44.146Z,15.50
2023-02-22T10:17:30.453Z,15.55
2023-02-22T10:20:22.388Z,15.15
2023-02-22T10:22:56.671Z,15.33
2023-02-22T10:25:27.290Z,15.22
2023-02-22T10:28:06.375Z,15.52
2023-02-22T10:30:37.433Z,15.56
2023-02-22T10:33:17.682Z,15.73
2023-02-22T10:35:47.061Z,15.80
2023-02-22T10:38:20.204Z,15.80
2023-02-22T10:40:57.038Z,15.69
2023-02-22T10:43:25.777Z,15.75
2023-02-22T10:45:55.988Z,15.48
2023-02-22T10:48:25.313Z,15.72
2023-02-22T10:50:54.808Z,15.84
2023-02-22T10:53:23.132Z,15.88
2023-02-22T10:56:22.073Z,15.80
2023-02-22T10:58:59.559Z,15.91
2023-02-22T11:01:28.878Z,15.89
2023-02-22T11:04:08.828Z,16.16
2023-02-22T11:06:36.781Z,16.25
2023-02-22T11:09:17.914Z,16.37
2023-02-22T11:11:47.526Z,16.51
2023-02-22T11:14:29.441Z,16.62
2023-02-22T11:16:58.893Z,16.64
2023-02-22T11:19:31.690Z,16.69
2023-02-22T11:22:05.231Z,16.90
2023-02-22T11:24:48.400Z,16.71
2023-02-22T11:27:38.605Z,16.82
2023-02-22T11:30:30.435Z,16.83
2023-02-22T11:33:03.407Z,16.87
2023-02-22T11:35:38.040Z,16.84
2023-02-22T11:38:21.033Z,16.93
2023-02-22T11:41:14.805Z,16.83
2023-02-22T11:43:47.384Z,17.04
2023-02-22T11:46:18.066Z,16.95
2023-02-22T11:49:18.130Z,16.98
2023-02-22T11:52:16.968Z,16.80
2023-02-22T11:55:04.556Z,17.10
2023-02-22T11:58:08.317Z,16.87
2023-02-22T12:01:00.593Z,16.91
2023-02-22T12:03:34.273Z,16.91
2023-02-22T12:06:10.860Z,16.75
2023-02-22T12:09:04.359Z,16.75
2023-02-22T12:11:54.910Z,16.80
2023-02-22T12:14:43.581Z,16.78
2023-02-22T12:17:23.848Z,16.60
2023-02-22T12:19:55.500Z,16.69
2023-02-22T12:22:27.384Z,16.72
2023-02-22T12:25:08.581Z,16.68
2023-02-22T12:27:41.303Z,16.63
2023-02-22T12:30:18.589Z,16.83
2023-02-22T12:32:53.333Z,16.72
2023-02-22T12:35:24.552Z,16.51
2023-02-22T12:38:04.686Z,16.53
2023-02-22T12:40:37.756Z,16.58
2023-02-22T12:43:20.684Z,16.71
2023-02-22T12:46:03.077Z,16.71
2023-02-22T12:49:01.043Z,16.70
2023-02-22T12:51:37.741Z,16.51
2023-02-22T12:54:14.526Z,16.63
2023-02-22T12:56:48.932Z,16.36
2023-02-22T12:59:25.510Z,16.34
2023-02-22T13:02:14.683Z,16.18
2023-02-22T13:04:42.110Z,15.87
2023-02-22T13:07:38.331Z,16.11
2023-02-22T13:10:24.598Z,16.07
2023-02-22T13:13:15.276Z,15.84
2023-02-22T13:16:16.012Z,15.85
2023-02-22T13:18:58.056Z,15.65
2023-02-22T13:21:43.735Z,15.81
2023-02-22T13:24:21.269Z,15.59
2023-02-22T13:27:04.277Z,15.69
2023-02-22T13:29:38.835Z,15.41
2023-02-22T13:32:28.135Z,15.55
2023-02-22T13:35:17.541Z,15.60
2023-02-22T13:38:15.788Z,15.58
2023-02-22T13:41:15.096Z,15.32
2023-02-22T13:43:59.992Z,15.58
2023-02-22T13:46:36.839Z,15.46
2023-02-22T13:49:25.810Z,15.44
2023-02-22T13:52:02.670Z,15.33
2023-02-22T13:54:39.934Z,15.18
2023-02-22T13:57:25.780Z,15.06
2023-02-22T14:00:20.710Z,15.32
2023-02-22T14:03:40.485Z,15.10
2023-02-22T14:06:10.486Z,15.30
2023-02-22T14:08:41.290Z,15.38
2023-02-22T14:11:15.297Z,15.53
2023-02-22T14:13:55.581Z,15.44
2023-02-22T14:16:25.064Z,15.40
2023-02-22T14:19:06.578Z,15.34
2023-02-22T14:21:35.174Z,15.48
2023-02-22T14:24:16.235Z,15.45
2023-02-22T14:26:54.617Z,15.45
2023-02-22T14:29:22.353Z,15.48
2023-02-22T14:31:52.797Z,15.72
2023-02-22T14:34:41.562Z,15.58
2023-02-22T14:37:20.049Z,15.69
2023-02-22T14:40:12.744Z,15.70
2023-02-22T14:42:46.106Z,15.83
2023-02-22T14:45:28.569Z,15.75
2023-02-22T14:48:16.438Z,15.85
2023-02-22T14:50:51.369Z,15.90
2023-02-22T14:53:40.571Z,16.15
2023-02-22T14:56:29.834Z,16.38
2023-02-22T14:59:13.437Z,16.36
2023-02-22T15:01:52.728Z,16.41
2023-02-22T15:04:28.417Z,16.35
2023-02-22T15:06:57.628Z,16.13
2023-02-22T15:09:30.557Z,16.18
2023-02-22T15:12:05.244Z,16.10
2023-02-22T15:14:37.802Z,16.11
2023-02-22T15:17:21.261Z,16.18
2023-02-22T15:19:49.779Z,16.21
2023-02-22T15:22:24.770Z,16.18
2023-02-22T15:25:00.760Z,16.20
2023-02-22T15:27:28.775Z,16.27
2023-02-22T15:30:04.817Z,16.25
2023-02-22T15:32:38.710Z,16.20
2023-02-22T15:35:27.149Z,16.17
2023-02-22T15:38:21.609Z,16.13
2023-02-22T15:41:00.167Z,15.84
2023-02-22T15:43:28.588Z,15.83
2023-02-22T15:45:56.841Z,15.90
2023-02-22T15:48:26.725Z,15.94
2023-02-22T15:51:07.064Z,16.00
2023-02-22T15:53:39.891Z,16.02
2023-02-22T15:56:11.392Z,15.96
2023-02-22T15:58:39.329Z,15.99
2023-02-22T16:01:09.247Z,16.06
2023-02-22T16:03:45.924Z,16.08
2023-02-22T16:06:33.438Z,16.09
2023-02-22T16:09:11.306Z,16.03
2023-02-22T16:11:43.381Z,15.96
2023-02-22T16:14:37.237Z,16.00
2023-02-22T16:17:41.189Z,15.97
2023-02-22T16:20:14.346Z,16.11
2023-02-22T16:22:49.095Z,16.01
2023-02-22T16:25:21.395Z,15.92
2023-02-22T16:27:57.905Z,15.88
2023-02-22T16:30:39.436Z,15.85
2023-02-22T16:33:13.407Z,15.84
2023-02-22T16:35:48.490Z,15.75
2023-02-22T16:38:17.036Z,15.71
2023-02-22T16:40:58.431Z,15.70
2023-02-22T16:43:29.765Z,15.65
2023-02-22T16:45:58.139Z,15.67
2023-02-22T16:48:27.083Z,15.41
2023-02-22T16:50:57.047Z,15.68
2023-02-22T16:53:26.905Z,15.73
2023-02-22T16:55:58.093Z,15.73
2023-02-22T16:58:29.273Z,15.69
2023-02-22T17:00:57.435Z,15.64
2023-02-22T17:03:25.574Z,15.50
2023-02-22T17:05:53.266Z,15.39
2023-02-22T17:08:20.967Z,15.33
2023-02-22T17:10:51.488Z,15.25
2023-02-22T17:13:26.393Z,15.17
2023-02-22T17:15:56.391Z,15.35
2023-02-22T17:18:28.411Z,15.27
2023-02-22T17:20:56.086Z,15.23
2023-02-22T17:23:24.419Z,15.21
2023-02-22T17:25:54.070Z,15.15
2023-02-22T17:28:23.685Z,15.10
2023-02-22T17:30:52.720Z,14.97
2023-02-22T17:33:22.761Z,14.90
2023-02-22T17:35:50.265Z,14.98
2023-02-22T17:38:18.510Z,14.90
2023-02-22T17:40:54.712Z,14.81
2023-02-22T17:43:23.108Z,14.85
2023-02-22T17:45:50.700Z,14.79
2023-02-22T17:48:18.699Z,14.83
2023-02-22T17:50:47.836Z,14.79
2023-02-22T17:53:18.112Z,14.77
2023-02-22T17:55:45.782Z,14.83
2023-02-22T17:58:14.684Z,14.69
2023-02-22T18:00:45.548Z,14.62
2023-02-22T18:03:16.385Z,14.61
2023-02-22T18:05:46.329Z,14.58
2023-02-22T18:08:15.010Z,14.56
2023-02-22T18:10:43.775Z,14.47
2023-02-22T18:13:17.894Z,14.46
2023-02-22T18:15:46.517Z,14.44
2023-02-22T18:18:16.159Z,14.39
2023-02-22T18:20:51.358Z,14.32
2023-02-22T18:23:22.985Z,14.44
2023-02-22T18:26:09.247Z,14.39
2023-02-22T18:28:38.699Z,14.50
2023-02-22T18:31:08.539Z,14.35
2023-02-22T18:33:36.157Z,14.27
2023-02-22T18:36:04.618Z,14.12
2023-02-22T18:38:32.054Z,14.18
2023-02-22T18:41:04.844Z,14.23
2023-02-22T18:43:36.916Z,14.23
2023-02-22T18:46:12.180Z,14.35
2023-02-22T18:48:40.619Z,14.33
2023-02-22T18:51:10.717Z,14.28
2023-02-22T18:53:40.812Z,14.24
2023-02-22T18:56:15.180Z,14.16
2023-02-22T18:58:45.979Z,14.08
2023-02-22T19:01:18.408Z,14.00
2023-02-22T19:03:48.828Z,14.03
2023-02-22T19:06:17.785Z,14.16
2023-02-22T19:08:46.139Z,13.84
2023-02-22T19:11:17.922Z,14.11
2023-02-22T19:13:46.523Z,14.06
2023-02-22T19:16:15.196Z,13.96
2023-02-22T19:18:44.124Z,13.99
2023-02-22T19:21:13.939Z,14.00
2023-02-22T19:23:45.640Z,14.09
2023-02-22T19:26:18.814Z,14.08
2023-02-22T19:28:47.355Z,14.14
2023-02-22T19:31:46.225Z,13.84
2023-02-22T19:34:15.380Z,13.86
2023-02-22T19:36:46.235Z,13.70
2023-02-22T19:39:14.740Z,13.73
2023-02-22T19:41:42.696Z,13.64
2023-02-22T19:44:10.622Z,13.83
2023-02-22T19:46:38.509Z,13.55
2023-02-22T19:49:07.173Z,13.66
2023-02-22T19:51:34.838Z,13.85
2023-02-22T19:54:04.953Z,13.92
2023-02-22T19:56:35.123Z,13.88
2023-02-22T19:59:13.561Z,13.85
2023-02-22T20:01:44.141Z,13.65
2023-02-22T20:04:18.099Z,13.68
2023-02-22T20:06:46.242Z,13.87
2023-02-22T20:09:18.869Z,13.79
2023-02-22T20:11:46.382Z,13.75
2023-02-22T20:14:23.438Z,13.75
2023-02-22T20:16:51.882Z,13.70
2023-02-22T20:19:21.042Z,13.68
2023-02-22T20:21:49.054Z,13.84
2023-02-22T20:24:18.300Z,13.71
2023-02-22T20:26:46.826Z,13.71
2023-02-22T20:29:15.190Z,13.73
2023-02-22T20:31:43.462Z,13.76
2023-02-22T20:34:11.629Z,13.68
2023-02-22T20:36:41.384Z,13.75
2023-02-22T20:39:13.326Z,13.60
2023-02-22T20:41:42.836Z,14.00
2023-02-22T20:44:13.505Z,13.98
2023-02-22T20:46:41.715Z,13.86
2023-02-22T20:49:11.352Z,13.73
2023-02-22T20:51:42.112Z,13.77
2023-02-22T20:54:12.144Z,13.75
2023-02-22T20:56:42.146Z,13.75
2023-02-22T20:59:14.899Z,13.78
2023-02-22T21:01:42.312Z,13.73
2023-02-22T21:04:10.700Z,13.77
2023-02-22T21:06:39.641Z,13.76
2023-02-22T21:09:10.301Z,13.80
2023-02-22T21:11:38.917Z,13.71
2023-02-22T21:14:06.341Z,13.70
2023-02-22T21:16:36.195Z,13.66
2023-02-22T21:19:07.553Z,13.76
2023-02-22T21:21:35.589Z,13.66
2023-02-22T21:24:03.073Z,13.74
2023-02-22T21:26:32.753Z,13.63
2023-02-22T21:29:03.312Z,13.57
2023-02-22T21:31:32.048Z,13.64
2023-02-22T21:34:00.356Z,13.66
2023-02-22T21:36:28.388Z,13.70
2023-02-22T21:38:58.716Z,13.81
2023-02-22T21:41:28.840Z,13.71
2023-02-22T21:43:57.957Z,13.51
2023-02-22T21:46:27.548Z,13.54
2023-02-22T21:48:58.618Z,13.47
2023-02-22T21:51:31.924Z,13.43
2023-02-22T21:54:05.050Z,13.37
2023-02-22T21:56:36.305Z,13.36
2023-02-22T21:59:11.889Z,13.45
2023-02-22T22:01:46.981Z,13.47
2023-02-22T22:04:19.268Z,13.42
2023-02-22T22:06:49.040Z,13.37
2023-02-22T22:09:20.363Z,13.45
2023-02-22T22:11:52.022Z,13.46
2023-02-22T22:14:23.063Z,13.48
2023-02-22T22:16:53.425Z,13.46
2023-02-22T22:19:21.096Z,13.48
2023-02-22T22:21:50.124Z,13.38
2023-02-22T22:24:20.462Z,13.41
2023-02-22T22:26:54.642Z,13.35
2023-02-22T22:29:24.395Z,13.36
2023-02-22T22:31:52.555Z,13.41
2023-02-22T22:34:20.364Z,13.35
2023-02-22T22:36:47.941Z,13.34
2023-02-22T22:39:16.113Z,13.41
2023-02-22T22:41:44.312Z,13.36
2023-02-22T22:44:16.104Z,13.33
2023-02-22T22:46:49.091Z,13.28
2023-02-22T22:49:16.972Z,13.29
2023-02-22T22:51:47.348Z,13.24
2023-02-22T22:54:14.786Z,13.31
2023-02-22T22:56:42.188Z,13.26
2023-02-22T22:59:10.691Z,13.24
2023-02-22T23:01:40.673Z,13.40
2023-02-22T23:04:10.812Z,13.37
2023-02-22T23:06:41.061Z,13.21
2023-02-22T23:09:18.716Z,13.28
2023-02-22T23:11:50.627Z,13.17
2023-02-22T23:14:32.131Z,13.10
2023-02-22T23:17:03.257Z,13.13
2023-02-22T23:19:32.569Z,13.14
2023-02-22T23:22:01.388Z,13.16
2023-02-22T23:24:28.818Z,13.00
2023-02-22T23:27:07.137Z,13.07
2023-02-22T23:29:38.093Z,13.10
2023-02-22T23:32:06.209Z,13.09
2023-02-22T23:34:35.801Z,13.07
2023-02-22T23:37:03.731Z,13.18
2023-02-22T23:39:31.097Z,13.10
2023-02-22T23:41:59.238Z,13.07
2023-02-22T23:44:28.106Z,13.04
2023-02-22T23:46:55.896Z,13.06
2023-02-22T23:49:26.300Z,13.13
2023-02-22T23:51:54.276Z,13.14
2023-02-22T23:54:24.498Z,13.08
2023-02-22T23:56:58.511Z,12.93
2023-02-22T23:59:27.253Z,12.96
